Time;durP1;ratioP1;P1;durP2;ratioP2;P2;SDS_P1;SDS_P2;PMS_P1;PMS_P2;Temp;Humidity;BMP_temperature;BMP_pressure;BME280_temperature;BME280_humidity;BME280_pressure;Samples;Min_cycle;Max_cycle;Signal;HPM_P1;HPM_P2
2023/06/06 19:35:36;;;;;;;9.13;4.63;;;;;;;;;;5054588;27;20412;-76
2023/06/06 19:38:21;;;;;;;10.80;4.88;;;17.30;99.90;;;;;;5016070;28;20452;-76
2023/06/06 19:41:06;;;;;;;13.52;5.03;;;17.10;99.90;;;;;;5019637;28;20405;-76
2023/06/06 19:43:50;;;;;;;11.77;4.78;;;17.10;99.90;;;;;;5006503;28;20463;-78
2023/06/06 19:46:34;;;;;;;10.15;5.00;;;17.10;99.90;;;;;;5000664;28;20505;-77
2023/06/06 19:49:20;;;;;;;10.27;5.20;;;17.20;99.90;;;;;;5006296;28;20769;-77
2023/06/06 19:52:05;;;;;;;10.50;4.60;;;17.20;99.90;;;;;;5006409;28;20522;-75
2023/06/06 19:54:49;;;;;;;12.68;4.97;;;17.10;99.90;;;;;;5012170;28;20428;-76
2023/06/06 19:57:34;;;;;;;10.43;4.90;;;17.00;99.90;;;;;;5013168;28;20417;-77
2023/06/06 20:00:19;;;;;;;10.40;4.75;;;17.00;99.90;;;;;;5014058;28;20464;-78
2023/06/06 20:03:05;;;;;;;13.87;5.30;;;17.00;99.90;;;;;;5011077;28;20437;-76
2023/06/06 20:05:49;;;;;;;10.50;4.75;;;16.70;99.90;;;;;;5013392;28;20428;-77
2023/06/06 20:08:33;;;;;;;12.87;5.07;;;16.80;99.90;;;;;;5014980;28;20400;-76
2023/06/06 20:11:17;;;;;;;11.60;4.93;;;16.90;99.90;;;;;;5014667;28;20411;-77
2023/06/06 20:14:01;;;;;;;11.70;5.03;;;16.70;99.90;;;;;;5013665;28;20424;-75
2023/06/06 20:16:45;;;;;;;13.00;5.28;;;16.70;99.90;;;;;;5015789;28;20501;-77
2023/06/06 20:19:30;;;;;;;12.00;5.30;;;16.60;99.90;;;;;;5017835;28;20452;-76
2023/06/06 20:22:15;;;;;;;12.60;5.25;;;16.50;99.90;;;;;;5018054;28;20485;-78
2023/06/06 20:25:00;;;;;;;13.07;5.13;;;16.40;99.90;;;;;;5017047;28;20409;-77
2023/06/06 20:27:44;;;;;;;11.52;5.35;;;16.30;99.90;;;;;;5017748;28;20904;-78
2023/06/06 20:30:30;;;;;;;10.75;5.15;;;16.20;99.90;;;;;;5016108;28;20459;-76
2023/06/06 20:33:19;;;;;;;12.27;5.60;;;16.10;99.90;;;;;;5020316;28;20409;-77
2023/06/06 20:36:05;;;;;;;12.73;5.25;;;16.10;99.90;;;;;;5036173;28;20447;-76
2023/06/06 20:38:50;;;;;;;11.70;5.50;;;16.00;99.90;;;;;;5039914;28;20414;-80
2023/06/06 20:41:35;;;;;;;13.02;5.93;;;16.00;99.90;;;;;;5037996;28;20462;-76
2023/06/06 20:44:19;;;;;;;10.95;5.40;;;16.00;99.90;;;;;;5038079;28;20558;-78
2023/06/06 20:47:03;;;;;;;10.90;5.32;;;15.90;99.90;;;;;;5022357;28;20408;-77
2023/06/06 20:49:48;;;;;;;13.27;5.55;;;15.80;99.90;;;;;;5023276;28;20749;-76
2023/06/06 20:52:32;;;;;;;12.10;5.50;;;15.70;99.90;;;;;;5020561;28;20959;-76
2023/06/06 20:55:17;;;;;;;13.33;5.83;;;15.50;99.90;;;;;;5023261;28;20481;-75
2023/06/06 20:58:03;;;;;;;15.98;5.85;;;15.40;99.90;;;;;;5022638;28;20515;-75
2023/06/06 21:00:48;;;;;;;13.18;5.60;;;15.40;99.90;;;;;;5023415;28;20416;-77
2023/06/06 21:03:32;;;;;;;12.68;6.18;;;15.20;99.90;;;;;;5022200;28;20478;-78
2023/06/06 21:06:17;;;;;;;15.10;6.00;;;15.30;99.90;;;;;;5022291;28;20463;-75
2023/06/06 21:09:01;;;;;;;11.88;5.85;;;15.10;99.90;;;;;;5019785;28;20427;-75
2023/06/06 21:11:45;;;;;;;12.25;6.32;;;15.00;99.90;;;;;;5021711;28;20420;-77
2023/06/06 21:14:30;;;;;;;16.70;6.50;;;15.10;99.90;;;;;;5024663;28;20419;-75
2023/06/06 21:17:14;;;;;;;16.83;6.97;;;15.10;99.90;;;;;;5021663;28;20420;-75
2023/06/06 21:19:59;;;;;;;13.20;6.50;;;15.10;99.90;;;;;;5019221;28;20391;-76
2023/06/06 21:22:44;;;;;;;14.35;6.40;;;14.90;99.90;;;;;;5021778;28;20506;-74
2023/06/06 21:25:28;;;;;;;13.57;6.47;;;14.80;99.90;;;;;;5023293;28;20424;-75
2023/06/06 21:28:12;;;;;;;13.20;6.28;;;14.90;99.90;;;;;;5023767;28;20474;-74
2023/06/06 21:30:58;;;;;;;19.38;6.70;;;14.80;99.90;;;;;;5023451;28;20395;-77
2023/06/06 21:33:42;;;;;;;14.85;6.40;;;14.70;99.90;;;;;;5022773;28;20501;-75
2023/06/06 21:36:26;;;;;;;15.40;6.65;;;14.40;99.90;;;;;;5023472;28;20416;-75
2023/06/06 21:39:10;;;;;;;13.95;6.75;;;14.70;99.90;;;;;;5024079;28;20396;-74
2023/06/06 21:41:54;;;;;;;15.82;7.32;;;14.60;99.90;;;;;;5022720;28;20412;-75
2023/06/06 21:44:38;;;;;;;16.08;7.03;;;14.60;99.90;;;;;;5021583;28;20424;-74
2023/06/06 21:47:22;;;;;;;13.52;7.15;;;14.60;99.90;;;;;;5022415;28;20404;-78
2023/06/06 21:50:09;;;;;;;16.30;7.50;;;14.60;99.90;;;;;;5023583;28;20459;-75
2023/06/06 21:52:54;;;;;;;19.08;8.25;;;14.50;99.90;;;;;;5020251;28;20420;-77
2023/06/06 21:55:38;;;;;;;16.85;7.75;;;14.50;99.90;;;;;;5023134;28;20396;-76
2023/06/06 21:58:22;;;;;;;14.73;7.40;;;14.40;99.90;;;;;;5022962;28;20407;-78
2023/06/06 22:01:06;;;;;;;16.60;7.80;;;14.40;99.90;;;;;;5022058;28;20446;-76
2023/06/06 22:03:51;;;;;;;16.05;7.38;;;14.40;99.90;;;;;;5022298;28;20428;-75
2023/06/06 22:06:36;;;;;;;15.10;7.63;;;14.30;99.90;;;;;;5027080;28;20411;-76
2023/06/06 22:09:21;;;;;;;14.55;7.30;;;14.30;99.90;;;;;;5024867;28;20412;-75
2023/06/06 22:12:06;;;;;;;16.77;7.38;;;14.30;99.90;;;;;;5020250;28;20512;-76
2023/06/06 22:14:50;;;;;;;17.48;7.53;;;14.30;99.90;;;;;;5008608;28;20492;-78
2023/06/06 22:17:35;;;;;;;17.45;7.35;;;14.30;99.90;;;;;;5020281;28;20415;-76
2023/06/06 22:20:20;;;;;;;16.65;7.55;;;14.20;99.90;;;;;;5020765;28;20559;-75
2023/06/06 22:23:04;;;;;;;16.38;7.38;;;14.20;99.90;;;;;;5020340;28;20418;-76
2023/06/06 22:25:48;;;;;;;15.82;7.82;;;14.20;99.90;;;;;;5023810;28;20392;-76
2023/06/06 22:28:33;;;;;;;16.75;8.02;;;14.20;99.90;;;;;;5020454;28;20442;-76
2023/06/06 22:31:17;;;;;;;14.43;7.07;;;14.10;99.90;;;;;;5025013;28;20407;-75
2023/06/06 22:34:02;;;;;;;14.00;7.60;;;14.10;99.90;;;;;;5020904;28;20420;-77
2023/06/06 22:36:46;;;;;;;15.63;7.77;;;14.10;99.90;;;;;;5020108;28;20481;-75
2023/06/06 22:39:30;;;;;;;14.80;7.13;;;14.20;99.90;;;;;;5021679;28;20455;-76
2023/06/06 22:42:14;;;;;;;14.53;7.80;;;14.10;99.90;;;;;;5006841;28;20470;-75
2023/06/06 22:44:59;;;;;;;15.25;7.60;;;14.10;99.90;;;;;;5021004;28;20501;-75
2023/06/06 22:47:43;;;;;;;17.50;8.10;;;14.00;99.90;;;;;;5022351;28;20883;-76
2023/06/06 22:50:28;;;;;;;18.20;8.90;;;14.00;99.90;;;;;;5020111;28;20439;-77
2023/06/06 22:53:12;;;;;;;14.73;8.65;;;13.90;99.90;;;;;;5020643;28;20498;-75
2023/06/06 22:55:57;;;;;;;15.18;8.25;;;13.90;99.90;;;;;;5020046;28;20400;-77
2023/06/06 22:58:41;;;;;;;15.98;8.88;;;13.90;99.90;;;;;;5020067;28;20463;-76
2023/06/06 23:01:25;;;;;;;20.83;8.48;;;13.90;99.90;;;;;;5004051;28;20424;-76
2023/06/06 23:04:10;;;;;;;18.27;8.57;;;13.90;99.90;;;;;;5019527;28;20419;-76
2023/06/06 23:06:54;;;;;;;16.52;8.63;;;13.90;99.90;;;;;;5019295;28;20497;-75
2023/06/06 23:09:38;;;;;;;18.08;9.52;;;13.90;99.90;;;;;;5019220;28;20411;-78
2023/06/06 23:12:22;;;;;;;16.45;8.60;;;13.80;99.90;;;;;;5023262;28;20412;-74
2023/06/06 23:15:07;;;;;;;17.42;8.77;;;13.70;99.90;;;;;;5018853;28;20408;-77
2023/06/06 23:17:52;;;;;;;15.68;8.38;;;13.70;99.90;;;;;;5007234;28;20504;-75
2023/06/06 23:20:36;;;;;;;19.23;8.45;;;13.70;99.90;;;;;;5005889;28;20407;-77
2023/06/06 23:23:21;;;;;;;17.17;8.52;;;13.70;99.90;;;;;;5022334;28;20469;-76
2023/06/06 23:26:05;;;;;;;13.90;7.00;;;13.70;99.90;;;;;;5021713;28;20212;-75
2023/06/06 23:28:49;;;;;;;13.20;6.73;;;13.60;99.90;;;;;;5021330;28;20183;-76
2023/06/06 23:31:33;;;;;;;15.83;6.67;;;13.30;99.90;;;;;;5018264;28;20199;-74
2023/06/06 23:34:17;;;;;;;15.43;8.00;;;13.50;99.90;;;;;;5022536;28;20235;-77
2023/06/06 23:37:01;;;;;;;13.57;6.80;;;13.50;99.90;;;;;;5019465;28;20200;-77
2023/06/06 23:39:46;;;;;;;13.60;6.87;;;13.50;99.90;;;;;;5021936;28;20191;-74
2023/06/06 23:42:30;;;;;;;13.87;6.87;;;13.50;99.90;;;;;;5021161;28;20188;-75
2023/06/06 23:45:14;;;;;;;19.10;7.90;;;13.40;99.90;;;;;;5021187;28;20250;-75
2023/06/06 23:47:58;;;;;;;14.73;7.33;;;13.30;99.90;;;;;;5020872;28;20191;-77
2023/06/06 23:50:42;;;;;;;15.87;6.83;;;13.30;99.90;;;;;;5022564;28;20223;-76
2023/06/06 23:53:26;;;;;;;11.50;6.47;;;13.30;99.90;;;;;;5022926;28;20215;-75
2023/06/06 23:56:10;;;;;;;14.97;6.23;;;13.20;99.90;;;;;;5021448;28;20789;-73
2023/06/06 23:58:54;;;;;;;17.23;6.10;;;13.20;99.90;;;;;;5022699;28;20195;-75
